Time;durP1;ratioP1;P1;durP2;ratioP2;P2;SDS_P1;SDS_P2;PMS_P1;PMS_P2;Temp;Humidity;BMP_temperature;BMP_pressure;BME280_temperature;BME280_humidity;BME280_pressure;Samples;Min_cycle;Max_cycle;Signal;HPM_P1;HPM_P2
2022/12/31 00:01:01;;;;;;;6.53;6.22;;;;;;;;;;4985666;28;20301;-77
2022/12/31 00:03:27;;;;;;;6.80;6.50;;;;;;;;;;4971533;28;20062;-78
2022/12/31 00:05:52;;;;;;;6.30;6.00;;;;;;;;;;4980563;28;20080;-78
2022/12/31 00:08:18;;;;;;;6.40;6.10;;;;;;;;;;4981368;28;20035;-77
2022/12/31 00:10:44;;;;;;;6.20;5.90;;;;;;;;;;4983389;28;20113;-77
2022/12/31 00:13:10;;;;;;;6.10;5.80;;;;;;;;;;4985944;28;20387;-80
2022/12/31 00:15:37;;;;;;;6.32;6.03;;;;;;;;;;4989285;28;20030;-75
2022/12/31 00:18:05;;;;;;;6.50;6.00;;;;;;;;;;4984087;28;20061;-79
2022/12/31 00:20:30;;;;;;;6.50;6.20;;;;;;;;;;4984335;28;20092;-75
2022/12/31 00:22:56;;;;;;;6.47;6.18;;;;;;;;;;4987364;28;20041;-76
2022/12/31 00:25:22;;;;;;;6.60;6.20;;;;;;;;;;4986047;28;20104;-78
2022/12/31 00:27:47;;;;;;;6.47;6.18;;;;;;;;;;4989567;28;20066;-77
2022/12/31 00:30:13;;;;;;;6.35;6.05;;;;;;;;;;5000172;28;20065;-79
2022/12/31 00:32:38;;;;;;;6.35;6.05;;;;;;;;;;4984947;28;20088;-76
2022/12/31 00:35:05;;;;;;;6.60;6.30;;;;;;;;;;4986832;28;20058;-77
2022/12/31 00:37:30;;;;;;;6.57;6.28;;;;;;;;;;4981460;28;20065;-78
2022/12/31 00:39:56;;;;;;;6.47;6.18;;;;;;;;;;4977491;28;20026;-78
2022/12/31 00:42:22;;;;;;;6.40;6.10;;;;;;;;;;4983022;28;21264;-76
2022/12/31 00:44:47;;;;;;;6.47;6.18;;;;;;;;;;4986106;28;20109;-78
2022/12/31 00:47:13;;;;;;;6.20;5.90;;;;;;;;;;4981771;28;20043;-76
2022/12/31 00:49:39;;;;;;;6.70;6.40;;;;;;;;;;4990682;28;20054;-76
2022/12/31 00:52:05;;;;;;;6.40;5.90;;;;;;;;;;4987037;28;20604;-77
2022/12/31 00:54:30;;;;;;;6.55;6.13;;;;;;;;;;4985415;28;20035;-77
2022/12/31 00:56:56;;;;;;;6.68;6.38;;;;;;;;;;4987022;28;20096;-78
2022/12/31 00:59:22;;;;;;;6.40;6.10;;;;;;;;;;4989366;28;20154;-75
2022/12/31 01:01:48;;;;;;;6.13;5.82;;;;;;;;;;4995244;28;20065;-76
2022/12/31 01:04:18;;;;;;;7.03;6.63;;;;;;;;;;4992739;28;20113;-76
2022/12/31 01:06:45;;;;;;;6.50;6.20;;;;;;;;;;4988967;28;20046;-78
2022/12/31 01:09:13;;;;;;;11.30;6.40;;;;;;;;;;4992146;28;20168;-78
2022/12/31 01:11:41;;;;;;;6.72;6.20;;;;;;;;;;4990311;28;20061;-76
2022/12/31 01:14:15;;;;;;;6.28;5.97;;;;;;;;;;4988802;28;20034;-79
2022/12/31 01:16:42;;;;;;;6.50;6.10;;;;;;;;;;4988301;28;20038;-76
2022/12/31 01:19:12;;;;;;;6.60;6.20;;;;;;;;;;4990820;28;20109;-76
2022/12/31 01:21:39;;;;;;;6.40;6.10;;;;;;;;;;4989515;28;20045;-77
2022/12/31 01:24:07;;;;;;;6.30;6.00;;;;;;;;;;4986792;28;20049;-78
2022/12/31 01:26:32;;;;;;;6.90;6.50;;;;;;;;;;4998159;28;20048;-78
2022/12/31 01:28:58;;;;;;;6.55;6.20;;;;;;;;;;4984341;28;20074;-77
2022/12/31 01:31:24;;;;;;;6.40;6.10;;;;;;;;;;4986320;28;20485;-76
2022/12/31 01:33:51;;;;;;;6.75;6.28;;;;;;;;;;4989341;28;20049;-79
2022/12/31 01:36:23;;;;;;;6.30;6.00;;;;;;;;;;4993635;28;20037;-77
2022/12/31 01:38:49;;;;;;;6.80;6.50;;;;;;;;;;4984547;28;20062;-75
2022/12/31 01:41:18;;;;;;;7.28;6.88;;;;;;;;;;4984955;28;20120;-77
2022/12/31 01:43:49;;;;;;;6.57;6.18;;;;;;;;;;4989977;28;20042;-77
2022/12/31 01:46:44;;;;;;;6.70;6.40;;;;;;;;;;4995524;28;20038;-76
2022/12/31 01:49:43;;;;;;;6.57;6.18;;;;;;;;;;4985703;28;20045;-78
2022/12/31 01:52:30;;;;;;;6.50;6.20;;;;;;;;;;4989095;28;20425;-80
2022/12/31 01:55:12;;;;;;;6.43;6.10;;;;;;;;;;4985413;28;20117;-78
2022/12/31 01:57:38;;;;;;;6.30;6.00;;;;;;;;;;4994144;28;20105;-80
2022/12/31 02:00:05;;;;;;;6.18;5.88;;;;;;;;;;5009623;28;20126;-76
2022/12/31 02:02:32;;;;;;;6.43;6.13;;;;;;;;;;4989302;28;20041;-78
2022/12/31 02:05:01;;;;;;;6.38;5.97;;;;;;;;;;4972583;28;20038;-76
2022/12/31 02:07:27;;;;;;;;;;;;;;;;;;4994581;28;20034;-78
2022/12/31 02:09:53;;;;;;;6.80;6.30;;;;;;;;;;4994291;28;19927;-77
2022/12/31 02:12:19;;;;;;;6.93;6.53;;;;;;;;;;4990632;28;20041;-76
2022/12/31 02:14:48;;;;;;;6.85;6.45;;;;;;;;;;4988076;28;20034;-76
2022/12/31 02:17:38;;;;;;;6.55;6.20;;;;;;;;;;4986471;28;20038;-78
2022/12/31 02:20:25;;;;;;;6.60;6.30;;;;;;;;;;4987841;28;20037;-77
2022/12/31 02:23:05;;;;;;;6.15;5.85;;;;;;;;;;4990328;28;20050;-77
2022/12/31 02:25:50;;;;;;;6.55;6.25;;;;;;;;;;4990232;28;20034;-79
2022/12/31 02:28:37;;;;;;;6.40;6.10;;;;;;;;;;4988348;28;20418;-76
2022/12/31 02:31:11;;;;;;;6.45;6.15;;;;;;;;;;4988453;28;20035;-76
2022/12/31 02:34:09;;;;;;;6.38;6.07;;;;;;;;;;4987152;28;20105;-77
2022/12/31 02:36:41;;;;;;;6.43;6.05;;;;;;;;;;4985181;28;20033;-77
2022/12/31 02:39:08;;;;;;;6.70;6.30;;;;;;;;;;4997103;28;20041;-76
2022/12/31 02:41:49;;;;;;;6.85;6.45;;;;;;;;;;4999573;28;20038;-79
2022/12/31 02:44:29;;;;;;;7.38;6.75;;;;;;;;;;4996040;28;20088;-76
2022/12/31 02:47:07;;;;;;;6.60;6.20;;;;;;;;;;4997037;28;20069;-78
2022/12/31 02:49:51;;;;;;;5.93;5.63;;;;;;;;;;4990691;28;20125;-77
2022/12/31 02:52:25;;;;;;;6.50;6.20;;;;;;;;;;4988897;28;20046;-77
2022/12/31 02:55:22;;;;;;;7.15;6.65;;;;;;;;;;4999356;28;20037;-77
2022/12/31 02:58:06;;;;;;;6.68;6.38;;;;;;;;;;4993043;28;20070;-77
2022/12/31 03:03:20;;;;;;;7.35;6.20;;;;;;;;;;4999146;28;20030;-79
2022/12/31 03:05:48;;;;;;;6.55;6.15;;;;;;;;;;4988353;28;20041;-77
2022/12/31 03:08:24;;;;;;;6.47;6.07;;;;;;;;;;4992449;28;20042;-78
2022/12/31 03:10:51;;;;;;;6.50;6.20;;;;;;;;;;4995486;28;20389;-78
2022/12/31 03:13:17;;;;;;;6.68;6.38;;;;;;;;;;4993395;28;20038;-78
2022/12/31 03:15:42;;;;;;;6.40;6.10;;;;;;;;;;4993609;28;20505;-78
2022/12/31 03:18:13;;;;;;;6.25;5.95;;;;;;;;;;4994077;28;20027;-77
2022/12/31 03:23:35;;;;;;;6.75;6.15;;;;;;;;;;4995565;28;20449;-80
2022/12/31 03:26:02;;;;;;;6.63;6.13;;;;;;;;;;4992756;28;20052;-77
2022/12/31 03:28:29;;;;;;;6.55;6.15;;;;;;;;;;4993312;28;20035;-77
2022/12/31 03:31:00;;;;;;;6.47;6.18;;;;;;;;;;4997702;28;20097;-78
2022/12/31 03:33:30;;;;;;;6.78;6.30;;;;;;;;;;4998993;28;20036;-79
2022/12/31 03:35:56;;;;;;;6.35;6.05;;;;;;;;;;4992898;28;20026;-80
2022/12/31 03:38:21;;;;;;;6.38;5.97;;;;;;;;;;4997938;28;20058;-80
2022/12/31 03:40:50;;;;;;;7.18;6.78;;;;;;;;;;4994948;28;20510;-76
2022/12/31 03:43:18;;;;;;;6.70;6.30;;;;;;;;;;4987450;28;20042;-79
2022/12/31 03:45:46;;;;;;;6.38;6.07;;;;;;;;;;4998614;28;20030;-77
2022/12/31 03:48:12;;;;;;;6.35;6.05;;;;;;;;;;4990070;28;20632;-79
2022/12/31 03:50:37;;;;;;;6.90;6.50;;;;;;;;;;4991085;28;20076;-77
2022/12/31 03:53:03;;;;;;;6.20;5.80;;;;;;;;;;4992263;28;20038;-77
2022/12/31 03:55:28;;;;;;;6.78;6.38;;;;;;;;;;4996365;28;20037;-78
2022/12/31 03:57:54;;;;;;;6.50;6.20;;;;;;;;;;4984607;28;20100;-80
2022/12/31 04:00:20;;;;;;;6.57;6.22;;;;;;;;;;4996324;28;20029;-77
2022/12/31 04:02:48;;;;;;;6.38;6.07;;;;;;;;;;4995173;28;20125;-76
2022/12/31 04:05:14;;;;;;;6.55;6.15;;;;;;;;;;4989173;28;20080;-77
2022/12/31 04:07:41;;;;;;;7.00;6.50;;;;;;;;;;4995035;28;20112;-78
2022/12/31 04:10:09;;;;;;;6.63;6.30;;;;;;;;;;4996739;28;20081;-80
2022/12/31 04:12:35;;;;;;;6.50;6.10;;;;;;;;;;4990105;28;20461;-80
2022/12/31 04:15:01;;;;;;;7.00;6.50;;;;;;;;;;4996321;28;20034;-78
2022/12/31 04:17:27;;;;;;;6.72;6.43;;;;;;;;;;4993405;28;20085;-78
2022/12/31 04:19:52;;;;;;;7.13;6.72;;;;;;;;;;4984023;28;20044;-76
2022/12/31 04:22:18;;;;;;;7.10;6.60;;;;;;;;;;4992611;28;20453;-76
2022/12/31 04:24:44;;;;;;;6.68;6.38;;;;;;;;;;4991659;28;20045;-76
2022/12/31 04:27:11;;;;;;;6.47;6.18;;;;;;;;;;4989770;28;20030;-79
2022/12/31 04:29:36;;;;;;;6.82;6.32;;;;;;;;;;4988439;28;20169;-75
2022/12/31 04:32:03;;;;;;;6.50;6.20;;;;;;;;;;4997786;28;20112;-77
2022/12/31 04:34:29;;;;;;;6.45;6.15;;;;;;;;;;4999230;28;20041;-76
2022/12/31 04:36:55;;;;;;;6.68;6.28;;;;;;;;;;4998209;28;20034;-75
2022/12/31 04:39:20;;;;;;;6.63;6.32;;;;;;;;;;4989953;28;20026;-76
2022/12/31 04:41:46;;;;;;;6.20;5.90;;;;;;;;;;4989579;28;20490;-79
2022/12/31 04:44:12;;;;;;;6.82;6.50;;;;;;;;;;4995385;28;20407;-78
2022/12/31 04:46:37;;;;;;;6.43;6.13;;;;;;;;;;4990665;28;20070;-75
2022/12/31 04:49:03;;;;;;;6.65;6.25;;;;;;;;;;4988925;28;20034;-76
2022/12/31 04:51:30;;;;;;;6.95;6.50;;;;;;;;;;4991923;28;20120;-76
2022/12/31 04:53:56;;;;;;;7.03;6.40;;;;;;;;;;4995899;28;20455;-75
2022/12/31 04:56:23;;;;;;;6.60;6.30;;;;;;;;;;4991347;28;20038;-76
2022/12/31 04:58:48;;;;;;;6.65;6.32;;;;;;;;;;4990711;28;20064;-76
2022/12/31 05:01:14;;;;;;;7.05;6.63;;;;;;;;;;4993085;28;20074;-75
2022/12/31 05:03:40;;;;;;;7.10;6.70;;;;;;;;;;4991842;28;20505;-76
2022/12/31 05:06:14;;;;;;;7.45;6.47;;;;;;;;;;4990309;28;20044;-75
2022/12/31 05:08:40;;;;;;;6.47;6.18;;;;;;;;;;5000465;28;20066;-76
2022/12/31 05:11:06;;;;;;;7.00;6.60;;;;;;;;;;4996197;28;20548;-76
2022/12/31 05:13:32;;;;;;;6.70;6.30;;;;;;;;;;4983613;28;20042;-76
2022/12/31 05:15:58;;;;;;;6.63;6.30;;;;;;;;;;4991398;28;20065;-76
2022/12/31 05:18:23;;;;;;;6.57;6.18;;;;;;;;;;4995760;28;20053;-79
2022/12/31 05:20:49;;;;;;;7.18;6.78;;;;;;;;;;4992293;28;20548;-75
2022/12/31 05:23:16;;;;;;;6.30;6.00;;;;;;;;;;4986165;28;20037;-75
2022/12/31 05:25:43;;;;;;;6.40;6.10;;;;;;;;;;4987122;28;20046;-79
2022/12/31 05:28:09;;;;;;;6.95;6.55;;;;;;;;;;4991554;28;20470;-75
2022/12/31 05:30:35;;;;;;;6.80;6.40;;;;;;;;;;4989783;28;20105;-75
2022/12/31 05:33:01;;;;;;;6.50;6.20;;;;;;;;;;4992941;28;20031;-76
2022/12/31 05:35:27;;;;;;;7.30;6.90;;;;;;;;;;4998422;28;20048;-76
2022/12/31 05:37:52;;;;;;;7.32;6.85;;;;;;;;;;4994676;28;20046;-76
2022/12/31 05:40:18;;;;;;;7.00;6.60;;;;;;;;;;4986143;28;20091;-81
2022/12/31 05:42:44;;;;;;;6.90;6.50;;;;;;;;;;4996198;28;20060;-75
2022/12/31 05:45:12;;;;;;;6.70;6.40;;;;;;;;;;4999911;28;20101;-75
2022/12/31 05:47:41;;;;;;;6.80;6.40;;;;;;;;;;4991847;28;20033;-76
2022/12/31 05:50:09;;;;;;;6.70;6.40;;;;;;;;;;4995845;28;20072;-79
2022/12/31 05:52:35;;;;;;;7.00;6.60;;;;;;;;;;4996393;28;20048;-78
2022/12/31 05:55:01;;;;;;;6.75;6.45;;;;;;;;;;4988996;28;20046;-78
2022/12/31 05:57:26;;;;;;;6.90;6.60;;;;;;;;;;4990111;28;20062;-78
2022/12/31 05:59:52;;;;;;;7.10;6.70;;;;;;;;;;4990869;28;20030;-75
2022/12/31 06:02:19;;;;;;;6.95;6.55;;;;;;;;;;4983590;28;20456;-75
2022/12/31 06:04:45;;;;;;;7.60;6.90;;;;;;;;;;4987903;28;20665;-75
2022/12/31 06:07:10;;;;;;;6.90;6.50;;;;;;;;;;4999695;28;20037;-76
2022/12/31 06:09:36;;;;;;;6.82;6.53;;;;;;;;;;4992300;28;20112;-76
2022/12/31 06:12:04;;;;;;;7.00;6.60;;;;;;;;;;4987023;28;20037;-79
2022/12/31 06:14:29;;;;;;;6.35;6.05;;;;;;;;;;4984824;28;20034;-80
2022/12/31 06:16:55;;;;;;;6.65;6.32;;;;;;;;;;5002427;28;20091;-75
2022/12/31 06:19:20;;;;;;;6.50;6.10;;;;;;;;;;4990107;28;20034;-76
2022/12/31 06:21:46;;;;;;;6.38;6.07;;;;;;;;;;4992420;28;20058;-76
2022/12/31 06:24:11;;;;;;;6.60;6.30;;;;;;;;;;4995010;28;20034;-79
2022/12/31 06:26:37;;;;;;;6.88;6.47;;;;;;;;;;4997183;28;20046;-77
2022/12/31 06:29:03;;;;;;;6.43;6.13;;;;;;;;;;4992039;28;20125;-76
2022/12/31 06:31:28;;;;;;;6.70;6.30;;;;;;;;;;4985647;28;20109;-77
2022/12/31 06:33:54;;;;;;;7.05;6.65;;;;;;;;;;4991787;28;20506;-80
2022/12/31 06:36:21;;;;;;;6.75;6.35;;;;;;;;;;4993289;28;20121;-75
2022/12/31 06:38:47;;;;;;;6.60;6.30;;;;;;;;;;4992750;28;20482;-79
2022/12/31 06:41:14;;;;;;;6.90;6.40;;;;;;;;;;4992216;28;20142;-77
2022/12/31 06:43:41;;;;;;;6.57;6.28;;;;;;;;;;5010934;28;20282;-74
2022/12/31 06:46:09;;;;;;;6.70;6.40;;;;;;;;;;4994240;28;20051;-78
2022/12/31 06:48:35;;;;;;;6.70;6.40;;;;;;;;;;4996479;28;20065;-80
2022/12/31 06:51:06;;;;;;;6.82;6.53;;;;;;;;;;4992879;28;20045;-78
2022/12/31 06:53:32;;;;;;;6.70;6.40;;;;;;;;;;4993762;28;20034;-76
2022/12/31 06:56:06;;;;;;;6.60;6.20;;;;;;;;;;4992850;28;20050;-76
2022/12/31 06:58:32;;;;;;;6.93;6.53;;;;;;;;;;4989575;28;20031;-76
2022/12/31 07:01:23;;;;;;;6.97;6.68;;;;;;;;;;4990419;28;20046;-78
2022/12/31 07:04:03;;;;;;;6.60;6.30;;;;;;;;;;4991522;28;20034;-76
2022/12/31 07:06:33;;;;;;;6.70;6.40;;;;;;;;;;4995390;28;20038;-75
2022/12/31 07:09:11;;;;;;;6.95;6.55;;;;;;;;;;5006316;28;20051;-76
2022/12/31 07:11:55;;;;;;;6.97;6.57;;;;;;;;;;4988650;28;20030;-75
2022/12/31 07:14:20;;;;;;;6.60;6.30;;;;;;;;;;4991456;28;20394;-75
2022/12/31 07:17:02;;;;;;;6.78;6.40;;;;;;;;;;4993863;28;20042;-76
2022/12/31 07:19:43;;;;;;;6.60;6.28;;;;;;;;;;4994077;28;20044;-77
2022/12/31 07:22:14;;;;;;;7.00;6.60;;;;;;;;;;4983630;28;20069;-76
2022/12/31 07:24:43;;;;;;;6.88;6.47;;;;;;;;;;4993460;28;20039;-78
2022/12/31 07:27:35;;;;;;;6.65;6.35;;;;;;;;;;4988117;28;20045;-76
2022/12/31 07:30:11;;;;;;;7.10;6.70;;;;;;;;;;4995123;28;20485;-76
2022/12/31 07:32:42;;;;;;;7.20;6.80;;;;;;;;;;4995976;28;20080;-77
2022/12/31 07:35:16;;;;;;;6.82;6.43;;;;;;;;;;4994423;28;20066;-77
2022/12/31 07:38:17;;;;;;;7.05;6.65;;;;;;;;;;4994071;28;20042;-76
2022/12/31 07:41:18;;;;;;;7.32;6.93;;;;;;;;;;4991918;28;20057;-78
2022/12/31 07:44:07;;;;;;;7.03;6.63;;;;;;;;;;4990328;28;20041;-76
2022/12/31 07:46:54;;;;;;;6.82;6.45;;;;;;;;;;4989937;28;20038;-79
2022/12/31 07:49:20;;;;;;;7.05;6.55;;;;;;;;;;4993209;28;20088;-76
2022/12/31 07:51:46;;;;;;;7.05;6.65;;;;;;;;;;4991674;28;20508;-77
2022/12/31 07:54:12;;;;;;;6.82;6.43;;;;;;;;;;4984410;28;20477;-76
2022/12/31 07:56:38;;;;;;;7.35;6.80;;;;;;;;;;4988839;28;20038;-78
2022/12/31 07:59:35;;;;;;;7.22;6.72;;;;;;;;;;4996053;28;20117;-79
2022/12/31 08:02:13;;;;;;;7.20;6.80;;;;;;;;;;4985265;28;20076;-77
2022/12/31 08:05:05;;;;;;;7.50;7.05;;;;;;;;;;4989765;28;20061;-78
2022/12/31 08:08:08;;;;;;;7.63;7.13;;;;;;;;;;4993009;28;20032;-78
2022/12/31 08:10:53;;;;;;;7.30;6.90;;;;;;;;;;4993981;28;20038;-77
2022/12/31 08:13:19;;;;;;;7.10;6.70;;;;;;;;;;4991597;28;20092;-76
2022/12/31 08:15:45;;;;;;;7.10;6.70;;;;;;;;;;4997005;28;20037;-76
2022/12/31 08:18:11;;;;;;;7.45;6.97;;;;;;;;;;4997341;28;20045;-76
2022/12/31 08:20:49;;;;;;;7.20;6.80;;;;;;;;;;4995729;28;20034;-76
2022/12/31 08:23:49;;;;;;;7.53;7.10;;;;;;;;;;4996886;28;20449;-76
2022/12/31 08:26:27;;;;;;;7.20;6.80;;;;;;;;;;4994949;28;20042;-78
2022/12/31 08:29:21;;;;;;;7.60;7.10;;;;;;;;;;4994401;28;20042;-75
2022/12/31 08:32:02;;;;;;;7.10;6.70;;;;;;;;;;4994757;28;20034;-79
2022/12/31 08:34:42;;;;;;;6.85;6.45;;;;;;;;;;4994650;28;20073;-76
2022/12/31 08:37:37;;;;;;;6.70;6.30;;;;;;;;;;4989490;28;20056;-76
2022/12/31 08:40:24;;;;;;;7.25;6.85;;;;;;;;;;4980797;28;20053;-78
2022/12/31 08:43:14;;;;;;;6.75;6.38;;;;;;;;;;4999366;28;20034;-76
2022/12/31 08:46:01;;;;;;;7.07;6.68;;;;;;;;;;4990838;28;20130;-78
2022/12/31 08:48:36;;;;;;;7.50;6.88;;;;;;;;;;4984630;28;20106;-78
2022/12/31 08:51:02;;;;;;;7.30;6.80;;;;;;;;;;4996457;28;20030;-78
2022/12/31 08:53:28;;;;;;;7.10;6.70;;;;;;;;;;5004805;28;20920;-80
2022/12/31 08:56:19;;;;;;;7.50;7.10;;;;;;;;;;4993091;28;20044;-77
2022/12/31 08:59:00;;;;;;;7.22;6.82;;;;;;;;;;4990819;28;20046;-77
2022/12/31 09:01:34;;;;;;;7.00;6.60;;;;;;;;;;5003955;28;20026;-77
2022/12/31 09:04:12;;;;;;;7.20;6.80;;;;;;;;;;4992594;28;20084;-79
2022/12/31 09:06:47;;;;;;;7.20;6.80;;;;;;;;;;4991194;28;20559;-79
2022/12/31 09:09:30;;;;;;;7.30;6.82;;;;;;;;;;4991999;28;20035;-80
2022/12/31 09:12:17;;;;;;;7.57;7.18;;;;;;;;;;4997645;28;20033;-78
2022/12/31 09:14:45;;;;;;;7.47;6.97;;;;;;;;;;4996145;28;20493;-78
2022/12/31 09:17:14;;;;;;;7.07;6.68;;;;;;;;;;4998118;28;20042;-79
2022/12/31 09:19:39;;;;;;;7.75;7.05;;;;;;;;;;4994765;28;20069;-78
2022/12/31 09:22:05;;;;;;;7.28;6.88;;;;;;;;;;4994192;28;20123;-76
2022/12/31 09:24:31;;;;;;;7.60;7.20;;;;;;;;;;4995918;28;20042;-77
2022/12/31 09:27:17;;;;;;;7.15;6.75;;;;;;;;;;4993509;28;20044;-77
2022/12/31 09:30:04;;;;;;;7.38;6.97;;;;;;;;;;4988563;28;20125;-77
2022/12/31 09:32:48;;;;;;;7.00;6.60;;;;;;;;;;4987947;28;20038;-76
2022/12/31 09:35:38;;;;;;;6.70;6.40;;;;;;;;;;4992232;28;20033;-77
2022/12/31 09:38:29;;;;;;;7.47;7.07;;;;;;;;;;4993940;28;20034;-78
2022/12/31 09:41:04;;;;;;;7.63;7.18;;;;;;;;;;4993591;28;21026;-78
2022/12/31 09:43:51;;;;;;;7.40;7.00;;;;;;;;;;4988061;28;20082;-77
2022/12/31 09:46:52;;;;;;;7.20;6.80;;;;;;;;;;5007177;28;20100;-80
2022/12/31 09:49:55;;;;;;;6.85;6.45;;;;;;;;;;4989530;28;20041;-77
2022/12/31 09:52:45;;;;;;;7.32;6.93;;;;;;;;;;4990327;28;20493;-78
2022/12/31 09:55:34;;;;;;;7.38;6.97;;;;;;;;;;4996915;28;20035;-79
2022/12/31 09:58:24;;;;;;;7.63;7.22;;;;;;;;;;4985806;28;20051;-77
2022/12/31 10:00:58;;;;;;;7.18;6.78;;;;;;;;;;4979626;28;20083;-78
2022/12/31 10:03:38;;;;;;;7.32;6.82;;;;;;;;;;4989205;28;20110;-77
2022/12/31 10:06:20;;;;;;;6.82;6.43;;;;;;;;;;4982947;28;20038;-77
2022/12/31 10:09:19;;;;;;;7.00;6.63;;;;;;;;;;4987378;28;20038;-77
2022/12/31 10:12:19;;;;;;;7.60;7.00;;;;;;;;;;4988006;28;20056;-77
2022/12/31 10:15:06;;;;;;;7.15;6.75;;;;;;;;;;4991839;28;20117;-78
2022/12/31 10:17:57;;;;;;;7.35;6.95;;;;;;;;;;4988394;28;20038;-78
2022/12/31 10:20:40;;;;;;;7.38;6.97;;;;;;;;;;4991446;28;20031;-77
2022/12/31 10:23:11;;;;;;;7.43;7.03;;;;;;;;;;4986620;28;20087;-78
2022/12/31 10:26:05;;;;;;;8.02;7.25;;;;;;;;;;4989982;28;20121;-78
2022/12/31 10:28:52;;;;;;;7.60;7.10;;;;;;;;;;4996183;28;20045;-77
2022/12/31 10:31:29;;;;;;;6.20;5.90;;;;;;;;;;4977514;28;21665;-77
2022/12/31 10:34:22;;;;;;;7.22;6.82;;;;;;;;;;4993331;28;20030;-79
2022/12/31 10:37:05;;;;;;;7.72;7.32;;;;;;;;;;4992028;28;20533;-79
2022/12/31 10:39:40;;;;;;;7.10;6.70;;;;;;;;;;4981720;28;20380;-79
2022/12/31 10:42:25;;;;;;;7.50;7.03;;;;;;;;;;4993425;28;20479;-77
2022/12/31 10:45:20;;;;;;;6.80;6.40;;;;;;;;;;4996880;28;20042;-77
2022/12/31 10:48:26;;;;;;;6.88;6.47;;;;;;;;;;4991815;28;20082;-77
2022/12/31 10:51:04;;;;;;;7.13;6.72;;;;;;;;;;4985372;28;20125;-79
2022/12/31 10:54:24;;;;;;;6.95;6.55;;;;;;;;;;4988094;28;20054;-78
2022/12/31 10:57:06;;;;;;;7.03;6.63;;;;;;;;;;4972842;28;20735;-78
2022/12/31 11:00:00;;;;;;;7.15;6.68;;;;;;;;;;4984580;28;20389;-78
2022/12/31 11:02:56;;;;;;;6.90;6.50;;;;;;;;;;4995509;28;20375;-78
2022/12/31 11:05:43;;;;;;;7.20;6.75;;;;;;;;;;4997700;28;20116;-78
2022/12/31 11:08:55;;;;;;;7.00;6.60;;;;;;;;;;4994078;28;20062;-77
2022/12/31 11:11:27;;;;;;;6.78;6.38;;;;;;;;;;5002737;28;20038;-76
2022/12/31 11:13:52;;;;;;;7.30;6.90;;;;;;;;;;4999929;28;20378;-77
2022/12/31 11:16:24;;;;;;;7.20;6.80;;;;;;;;;;4998239;28;20105;-77
2022/12/31 11:19:02;;;;;;;7.00;6.60;;;;;;;;;;4999536;28;20038;-77
2022/12/31 11:21:36;;;;;;;7.30;6.90;;;;;;;;;;4988322;28;20030;-77
2022/12/31 11:24:36;;;;;;;6.78;6.47;;;;;;;;;;4998293;28;20037;-77
2022/12/31 11:27:33;;;;;;;7.22;6.82;;;;;;;;;;4994172;28;20113;-78
2022/12/31 11:30:20;;;;;;;7.25;6.85;;;;;;;;;;5013158;28;20049;-77
2022/12/31 11:32:54;;;;;;;7.45;7.00;;;;;;;;;;4997592;28;20062;-78
2022/12/31 11:35:27;;;;;;;7.80;7.28;;;;;;;;;;4973379;28;20035;-78
2022/12/31 11:38:03;;;;;;;8.13;7.65;;;;;;;;;;4987247;28;20042;-76
2022/12/31 11:41:02;;;;;;;7.93;7.50;;;;;;;;;;4994128;28;20702;-79
2022/12/31 11:43:42;;;;;;;7.03;6.63;;;;;;;;;;4988321;28;20137;-77
2022/12/31 11:46:26;;;;;;;6.88;6.40;;;;;;;;;;4996328;28;20477;-77
2022/12/31 11:49:33;;;;;;;7.07;6.68;;;;;;;;;;4996541;28;20066;-78
2022/12/31 11:52:11;;;;;;;7.55;7.10;;;;;;;;;;4965913;28;20050;-76
2022/12/31 11:55:02;;;;;;;7.50;6.93;;;;;;;;;;4962639;28;20042;-76
2022/12/31 11:57:35;;;;;;;7.20;6.80;;;;;;;;;;4966550;28;20047;-77
2022/12/31 12:00:15;;;;;;;7.32;6.82;;;;;;;;;;4962620;28;20031;-77
2022/12/31 12:02:45;;;;;;;7.32;6.93;;;;;;;;;;4964664;28;20050;-77
2022/12/31 12:05:15;;;;;;;7.50;7.10;;;;;;;;;;4965266;28;20093;-77
2022/12/31 12:07:41;;;;;;;7.20;6.70;;;;;;;;;;4963264;28;20679;-77
2022/12/31 12:10:18;;;;;;;7.78;7.18;;;;;;;;;;4968333;28;20035;-77
2022/12/31 12:12:43;;;;;;;7.95;7.30;;;;;;;;;;4967045;28;20042;-78
2022/12/31 12:15:15;;;;;;;7.95;7.30;;;;;;;;;;4966084;28;20046;-77
2022/12/31 12:17:42;;;;;;;8.07;7.47;;;;;;;;;;4964696;28;20100;-78
2022/12/31 12:20:28;;;;;;;7.55;7.05;;;;;;;;;;4967599;28;20546;-77
2022/12/31 12:22:56;;;;;;;7.75;7.13;;;;;;;;;;4966593;28;20074;-78
2022/12/31 12:25:24;;;;;;;7.53;6.93;;;;;;;;;;4966264;28;20399;-77
2022/12/31 12:27:50;;;;;;;7.28;6.88;;;;;;;;;;4980688;28;20046;-78
2022/12/31 12:30:25;;;;;;;7.97;7.38;;;;;;;;;;4990913;28;20069;-78
2022/12/31 12:32:59;;;;;;;7.65;7.25;;;;;;;;;;4987309;28;20118;-78
2022/12/31 12:35:31;;;;;;;8.05;7.40;;;;;;;;;;4995072;28;20033;-77
2022/12/31 12:38:18;;;;;;;8.85;8.25;;;;;;;;;;4992192;28;20113;-78
2022/12/31 12:40:59;;;;;;;8.73;8.13;;;;;;;;;;4989341;28;20046;-77
2022/12/31 12:43:33;;;;;;;8.90;8.30;;;;;;;;;;4995103;28;20032;-77
2022/12/31 12:46:22;;;;;;;9.30;8.60;;;;;;;;;;4987640;28;20046;-77
2022/12/31 12:48:54;;;;;;;9.48;8.80;;;;;;;;;;4994390;28;20042;-77
2022/12/31 12:51:25;;;;;;;7.85;7.32;;;;;;;;;;4993193;28;20389;-78
2022/12/31 12:54:20;;;;;;;8.60;7.90;;;;;;;;;;4997054;28;20042;-78
2022/12/31 12:57:01;;;;;;;8.23;7.72;;;;;;;;;;5000334;28;20497;-77
2022/12/31 12:59:36;;;;;;;8.50;7.90;;;;;;;;;;4999145;28;20026;-77
2022/12/31 13:02:40;;;;;;;8.45;7.85;;;;;;;;;;4996231;28;20038;-78
2022/12/31 13:05:53;;;;;;;8.65;8.15;;;;;;;;;;4990482;28;20034;-78
2022/12/31 13:08:48;;;;;;;7.88;7.28;;;;;;;;;;4998526;28;20176;-77
2022/12/31 13:11:43;;;;;;;8.80;8.20;;;;;;;;;;4980970;28;20042;-78
2022/12/31 13:14:28;;;;;;;8.30;7.70;;;;;;;;;;4983316;28;20073;-79
2022/12/31 13:17:18;;;;;;;7.90;7.50;;;;;;;;;;4988870;28;20049;-78
2022/12/31 13:19:55;;;;;;;7.90;7.50;;;;;;;;;;4982237;28;20038;-78
2022/12/31 13:22:33;;;;;;;7.80;7.40;;;;;;;;;;4999460;28;20065;-78
2022/12/31 13:25:06;;;;;;;8.20;7.60;;;;;;;;;;4990209;28;20120;-78
2022/12/31 13:27:49;;;;;;;8.50;7.90;;;;;;;;;;4989650;28;20434;-78
2022/12/31 13:30:18;;;;;;;8.18;7.68;;;;;;;;;;4999615;28;20070;-78
2022/12/31 13:32:56;;;;;;;8.30;7.80;;;;;;;;;;4994999;28;20678;-78
2022/12/31 13:35:29;;;;;;;8.20;7.70;;;;;;;;;;4982565;28;20041;-78
2022/12/31 13:38:05;;;;;;;8.30;7.85;;;;;;;;;;4990571;28;20030;-78
2022/12/31 13:40:59;;;;;;;8.77;8.27;;;;;;;;;;4999359;28;20113;-78
2022/12/31 13:43:31;;;;;;;8.73;8.23;;;;;;;;;;4987888;28;20065;-78
2022/12/31 13:46:04;;;;;;;8.93;8.43;;;;;;;;;;4996664;28;20034;-78
2022/12/31 13:48:38;;;;;;;8.05;7.57;;;;;;;;;;5007200;28;20125;-78
2022/12/31 13:51:17;;;;;;;8.63;8.10;;;;;;;;;;4995735;28;20069;-78
2022/12/31 13:53:47;;;;;;;;;;;;;;;;;;4986967;28;20038;-77
2022/12/31 13:56:22;;;;;;;8.40;7.75;;;;;;;;;;4999442;28;19968;-76
2022/12/31 13:59:03;;;;;;;8.45;7.95;;;;;;;;;;4986601;28;20039;-78
2022/12/31 14:01:56;;;;;;;8.05;7.65;;;;;;;;;;4951210;28;20034;-78
2022/12/31 14:04:41;;;;;;;7.78;7.38;;;;;;;;;;4984617;28;20073;-78
2022/12/31 14:07:25;;;;;;;7.78;7.28;;;;;;;;;;4989318;28;20030;-78
2022/12/31 14:09:51;;;;;;;8.85;8.25;;;;;;;;;;4989221;28;20129;-77
2022/12/31 14:12:17;;;;;;;7.90;7.30;;;;;;;;;;4984094;28;20030;-80
2022/12/31 14:15:17;;;;;;;8.82;8.23;;;;;;;;;;4996003;28;20450;-78
2022/12/31 14:17:42;;;;;;;8.27;7.78;;;;;;;;;;4993294;28;20045;-77
2022/12/31 14:20:15;;;;;;;8.10;7.60;;;;;;;;;;4994870;28;20025;-78
2022/12/31 14:23:04;;;;;;;8.32;7.82;;;;;;;;;;4976803;28;20033;-78
2022/12/31 14:25:38;;;;;;;8.10;7.70;;;;;;;;;;4990378;28;20045;-77
2022/12/31 14:28:06;;;;;;;8.35;7.85;;;;;;;;;;4988634;28;20065;-76
2022/12/31 14:30:35;;;;;;;8.98;8.18;;;;;;;;;;4987129;28;20033;-78
2022/12/31 14:33:14;;;;;;;8.23;7.72;;;;;;;;;;4992017;28;20060;-79
2022/12/31 14:35:54;;;;;;;8.50;8.05;;;;;;;;;;4987457;28;20126;-80
2022/12/31 14:38:33;;;;;;;9.07;8.52;;;;;;;;;;4982533;28;20042;-79
2022/12/31 14:41:05;;;;;;;8.75;8.15;;;;;;;;;;4993594;28;20563;-80
2022/12/31 14:43:57;;;;;;;8.73;8.00;;;;;;;;;;4990685;28;20037;-79
2022/12/31 14:46:45;;;;;;;8.65;8.15;;;;;;;;;;4987756;28;20054;-79
2022/12/31 14:49:33;;;;;;;8.73;8.23;;;;;;;;;;4990293;28;20477;-80
2022/12/31 14:52:29;;;;;;;8.73;8.18;;;;;;;;;;4989023;28;20105;-79
2022/12/31 14:55:15;;;;;;;8.68;8.18;;;;;;;;;;4955695;28;20500;-79
2022/12/31 14:57:44;;;;;;;8.77;8.27;;;;;;;;;;4992759;28;20109;-80
2022/12/31 15:00:22;;;;;;;8.50;8.00;;;;;;;;;;4988827;28;20030;-79
2022/12/31 15:02:50;;;;;;;8.32;7.82;;;;;;;;;;4988250;28;20050;-79
2022/12/31 15:05:19;;;;;;;7.80;7.30;;;;;;;;;;5003772;28;20101;-79
2022/12/31 15:07:48;;;;;;;;;;;;;;;;;;4988800;28;20042;-79
2022/12/31 15:10:32;;;;;;;8.32;7.72;;;;;;;;;;4989823;28;20411;-79
2022/12/31 15:13:05;;;;;;;8.48;7.97;;;;;;;;;;4991295;28;20116;-79
2022/12/31 15:16:00;;;;;;;8.60;8.10;;;;;;;;;;4991630;28;20038;-79
2022/12/31 15:18:35;;;;;;;7.97;7.47;;;;;;;;;;4987496;28;20070;-80
2022/12/31 15:21:24;;;;;;;8.60;8.10;;;;;;;;;;4988121;28;20049;-79
2022/12/31 15:23:50;;;;;;;8.45;7.95;;;;;;;;;;4990746;28;20038;-80
2022/12/31 15:26:25;;;;;;;8.68;8.18;;;;;;;;;;4986733;28;20667;-79
2022/12/31 15:29:26;;;;;;;9.18;8.68;;;;;;;;;;4988652;28;20042;-79
2022/12/31 15:31:53;;;;;;;9.15;8.55;;;;;;;;;;4984373;28;20089;-79
2022/12/31 15:34:35;;;;;;;8.35;7.85;;;;;;;;;;4984925;28;20103;-79
2022/12/31 15:37:05;;;;;;;8.73;8.13;;;;;;;;;;4988811;28;20134;-80